createdAt,value
2019-05-10T00:00:50.457Z,79.95
2019-05-10T00:03:34.878Z,79.84
2019-05-10T00:06:19.280Z,79.91
2019-05-10T00:08:45.423Z,79.79
2019-05-10T00:11:30.134Z,79.80
2019-05-10T00:13:58.202Z,79.81
2019-05-10T00:16:25.703Z,79.76
2019-05-10T00:18:52.111Z,79.77
2019-05-10T00:21:18.418Z,79.84
2019-05-10T00:23:44.518Z,79.75
2019-05-10T00:26:10.523Z,79.76
2019-05-10T00:28:36.632Z,79.89
2019-05-10T00:31:02.726Z,79.84
2019-05-10T00:33:28.761Z,79.74
2019-05-10T00:35:54.861Z,79.78
2019-05-10T00:38:21.025Z,79.84
2019-05-10T00:40:46.918Z,79.90
2019-05-10T00:43:12.952Z,79.94
2019-05-10T00:45:38.854Z,80.18
2019-05-10T00:48:04.988Z,80.43
2019-05-10T00:50:31.103Z,80.68
2019-05-10T00:52:57.169Z,80.80
2019-05-10T00:55:23.223Z,80.73
2019-05-10T00:57:49.323Z,80.78
2019-05-10T01:00:15.546Z,80.76
2019-05-10T01:02:41.568Z,81.00
2019-05-10T01:05:07.696Z,81.15
2019-05-10T01:07:33.810Z,81.20
2019-05-10T01:09:59.915Z,81.25
2019-05-10T01:12:25.975Z,81.31
2019-05-10T01:14:52.057Z,81.58
2019-05-10T01:17:18.197Z,81.92
2019-05-10T01:19:44.208Z,82.16
2019-05-10T01:22:10.215Z,82.14
2019-05-10T01:24:36.232Z,82.01
2019-05-10T01:27:02.439Z,81.98
2019-05-10T01:29:28.542Z,82.01
2019-05-10T01:31:54.652Z,82.09
2019-05-10T01:34:20.781Z,82.23
2019-05-10T01:36:46.683Z,82.22
2019-05-10T01:39:12.592Z,82.12
2019-05-10T01:41:38.603Z,81.96
2019-05-10T01:44:04.601Z,81.82
2019-05-10T01:46:30.730Z,81.48
2019-05-10T01:48:56.631Z,81.41
2019-05-10T01:51:22.534Z,81.32
2019-05-10T01:53:48.447Z,81.43
2019-05-10T01:56:14.463Z,81.53
2019-05-10T01:58:40.590Z,81.57
2019-05-10T02:01:06.716Z,81.50
2019-05-10T02:03:32.615Z,81.40
2019-05-10T02:05:58.632Z,81.43
2019-05-10T02:08:24.643Z,81.32
2019-05-10T02:10:50.742Z,81.38
2019-05-10T02:13:16.776Z,81.27
2019-05-10T02:15:42.915Z,81.15
2019-05-10T02:18:08.910Z,81.15
2019-05-10T02:20:34.817Z,81.15
2019-05-10T02:23:00.830Z,81.21
2019-05-10T02:25:26.933Z,81.04
2019-05-10T02:27:53.038Z,81.08
2019-05-10T02:30:20.948Z,81.07
2019-05-10T02:32:46.963Z,81.01
2019-05-10T02:35:13.193Z,80.92
2019-05-10T02:37:39.208Z,80.84
2019-05-10T02:40:06.510Z,80.89
2019-05-10T02:42:32.915Z,80.83
2019-05-10T02:44:58.848Z,80.83
2019-05-10T02:47:25.033Z,80.89
2019-05-10T02:49:51.032Z,80.75
2019-05-10T02:52:17.127Z,80.67
2019-05-10T02:54:43.227Z,80.67
2019-05-10T02:57:11.261Z,80.74
2019-05-10T02:59:37.762Z,80.63
2019-05-10T03:02:04.275Z,80.58
2019-05-10T03:04:34.010Z,80.62
2019-05-10T03:07:05.489Z,80.66
2019-05-10T03:09:32.333Z,80.71
2019-05-10T03:12:02.048Z,80.65
2019-05-10T03:14:31.756Z,80.67
2019-05-10T03:17:00.570Z,80.54
2019-05-10T03:19:30.009Z,80.48
2019-05-10T03:22:06.566Z,80.53
2019-05-10T03:24:32.701Z,80.37
2019-05-10T03:26:58.613Z,80.25
2019-05-10T03:29:24.830Z,80.32
2019-05-10T03:31:50.938Z,80.33
2019-05-10T03:34:17.043Z,80.37
2019-05-10T03:36:43.151Z,80.30
2019-05-10T03:39:09.246Z,80.48
2019-05-10T03:41:35.252Z,80.48
2019-05-10T03:44:01.422Z,80.55
2019-05-10T03:46:27.566Z,80.73
2019-05-10T03:48:53.473Z,80.78
2019-05-10T03:51:19.617Z,80.77
2019-05-10T03:53:45.724Z,80.59
2019-05-10T03:56:11.729Z,80.49
2019-05-10T03:58:37.831Z,80.59
2019-05-10T04:01:03.773Z,80.57
2019-05-10T04:03:29.665Z,80.52
2019-05-10T04:05:55.674Z,80.21
2019-05-10T04:08:21.775Z,80.16
2019-05-10T04:10:47.779Z,80.32
2019-05-10T04:13:13.792Z,80.36
2019-05-10T04:15:39.809Z,80.31
2019-05-10T04:18:05.931Z,80.16
2019-05-10T04:20:32.068Z,80.07
2019-05-10T04:22:58.066Z,80.11
2019-05-10T04:25:24.105Z,80.08
2019-05-10T04:27:50.101Z,79.95
2019-05-10T04:30:16.735Z,80.00
2019-05-10T04:32:42.731Z,80.04
2019-05-10T04:35:09.436Z,79.97
2019-05-10T04:37:35.580Z,79.92
2019-05-10T04:40:02.121Z,79.72
2019-05-10T04:42:28.028Z,79.85
2019-05-10T04:44:54.278Z,79.83
2019-05-10T04:47:20.425Z,80.05
2019-05-10T04:49:46.425Z,79.92
2019-05-10T04:52:12.372Z,79.86
2019-05-10T04:54:38.276Z,79.94
2019-05-10T04:57:04.267Z,80.03
2019-05-10T04:59:30.167Z,79.96
2019-05-10T05:01:56.295Z,79.92
2019-05-10T05:04:22.336Z,79.84
2019-05-10T05:06:48.335Z,79.81
2019-05-10T05:09:14.361Z,79.77
2019-05-10T05:11:40.373Z,79.75
2019-05-10T05:14:09.433Z,79.56
2019-05-10T05:16:34.422Z,79.52
2019-05-10T05:19:00.781Z,79.63
2019-05-10T05:21:26.786Z,79.65
2019-05-10T05:23:52.812Z,79.55
2019-05-10T05:26:18.812Z,79.50
2019-05-10T05:28:44.847Z,79.25
2019-05-10T05:31:10.757Z,78.97
2019-05-10T05:33:36.757Z,78.93
2019-05-10T05:36:02.861Z,78.99
2019-05-10T05:38:28.973Z,78.71
2019-05-10T05:40:55.043Z,78.95
2019-05-10T05:43:21.118Z,78.69
2019-05-10T05:45:47.048Z,78.08
2019-05-10T05:48:16.049Z,77.94
2019-05-10T05:50:40.930Z,77.72
2019-05-10T05:53:06.832Z,77.28
2019-05-10T05:55:32.931Z,77.12
2019-05-10T05:58:03.966Z,77.27
2019-05-10T06:00:27.054Z,77.14
2019-05-10T06:02:53.063Z,76.93
2019-05-10T06:05:32.241Z,76.88
2019-05-10T06:07:47.108Z,76.83
2019-05-10T06:10:17.079Z,76.41
2019-05-10T06:12:44.496Z,76.55
2019-05-10T06:15:09.328Z,76.74
2019-05-10T06:17:35.370Z,76.75
2019-05-10T06:20:05.940Z,76.47
2019-05-10T06:22:29.518Z,76.60
2019-05-10T06:24:55.629Z,76.39
2019-05-10T06:27:21.656Z,76.45
2019-05-10T06:29:47.787Z,76.44
2019-05-10T06:32:13.787Z,76.18
2019-05-10T06:34:40.299Z,76.28
2019-05-10T06:37:06.554Z,76.16
2019-05-10T06:39:32.610Z,76.02
2019-05-10T06:41:58.557Z,75.68
2019-05-10T06:44:30.473Z,75.56
2019-05-10T06:46:52.523Z,75.13
2019-05-10T06:49:18.568Z,75.14
2019-05-10T06:51:49.032Z,74.55
2019-05-10T06:54:12.616Z,73.75
2019-05-10T06:56:38.727Z,73.04
2019-05-10T06:59:13.628Z,72.55
2019-05-10T07:01:38.287Z,72.63
2019-05-10T07:04:00.550Z,71.78
2019-05-10T07:06:26.551Z,71.52
2019-05-10T07:08:57.825Z,71.16
2019-05-10T07:11:20.703Z,71.04
2019-05-10T07:13:52.050Z,70.72
2019-05-10T07:16:24.109Z,70.41
2019-05-10T07:18:42.631Z,70.18
2019-05-10T07:21:08.827Z,70.21
2019-05-10T07:23:39.196Z,69.07
2019-05-10T07:26:02.848Z,68.29
2019-05-10T07:28:28.855Z,69.07
2019-05-10T07:30:54.877Z,69.74
2019-05-10T07:33:20.874Z,68.33
2019-05-10T07:35:46.873Z,67.89
2019-05-10T07:38:12.988Z,68.29
2019-05-10T07:40:39.021Z,66.73
2019-05-10T07:43:05.127Z,66.06
2019-05-10T07:45:31.131Z,66.34
2019-05-10T07:48:02.502Z,65.99
2019-05-10T07:50:26.749Z,66.08
2019-05-10T07:52:52.757Z,66.28
2019-05-10T07:55:28.348Z,66.31
2019-05-10T07:57:46.881Z,64.90
2019-05-10T08:00:13.278Z,63.11
2019-05-10T08:02:39.289Z,62.75
2019-05-10T08:05:10.819Z,62.54
2019-05-10T08:07:33.974Z,60.26
2019-05-10T08:10:00.109Z,61.11
2019-05-10T08:12:28.682Z,59.98
2019-05-10T08:14:54.133Z,59.83
2019-05-10T08:17:20.090Z,59.61
2019-05-10T08:19:46.197Z,59.22
2019-05-10T08:22:12.939Z,58.80
2019-05-10T08:24:44.559Z,59.17
2019-05-10T08:27:13.982Z,58.91
2019-05-10T08:29:36.078Z,57.13
2019-05-10T08:32:03.394Z,55.71
2019-05-10T08:34:35.698Z,55.81
2019-05-10T08:36:57.250Z,55.82
2019-05-10T08:39:23.373Z,54.91
2019-05-10T08:42:01.340Z,55.12
2019-05-10T08:44:20.942Z,55.01
2019-05-10T08:46:45.378Z,55.12
2019-05-10T08:49:12.997Z,54.29
2019-05-10T08:51:43.784Z,53.28
2019-05-10T08:54:07.271Z,51.57
2019-05-10T08:56:33.533Z,50.03
2019-05-10T08:58:59.740Z,50.49
2019-05-10T09:01:30.194Z,49.68
2019-05-10T09:03:59.879Z,48.45
2019-05-10T09:06:22.152Z,49.52
2019-05-10T09:08:52.923Z,47.12
2019-05-10T09:11:16.557Z,46.49
2019-05-10T09:13:46.116Z,47.97
2019-05-10T09:16:10.603Z,48.87
2019-05-10T09:18:38.075Z,49.06
2019-05-10T09:21:08.917Z,49.54
2019-05-10T09:23:32.788Z,49.31
2019-05-10T09:26:03.723Z,48.70
2019-05-10T09:28:26.958Z,48.05
2019-05-10T09:31:00.473Z,47.89
2019-05-10T09:33:22.445Z,48.15
2019-05-10T09:35:54.179Z,48.17
2019-05-10T09:38:17.040Z,48.53
2019-05-10T09:40:51.160Z,47.74
2019-05-10T09:43:14.402Z,47.98
2019-05-10T09:45:39.196Z,46.10
2019-05-10T09:48:05.304Z,45.81
2019-05-10T09:50:41.224Z,46.48
2019-05-10T09:52:59.523Z,46.94
2019-05-10T09:55:27.859Z,48.29
2019-05-10T09:57:53.572Z,49.72
2019-05-10T10:00:31.475Z,51.22
2019-05-10T10:03:01.567Z,53.50
2019-05-10T10:05:25.616Z,55.32
2019-05-10T10:07:51.648Z,56.15
2019-05-10T10:10:26.343Z,56.91
2019-05-10T10:12:47.545Z,58.32
2019-05-10T10:15:19.080Z,56.72
2019-05-10T10:17:42.521Z,58.41
2019-05-10T10:20:08.814Z,58.66
2019-05-10T10:22:34.720Z,59.18
2019-05-10T10:25:00.805Z,59.20
2019-05-10T10:27:34.257Z,59.01
2019-05-10T10:29:57.190Z,59.06
2019-05-10T10:32:24.614Z,58.96
2019-05-10T10:34:54.368Z,60.15
2019-05-10T10:37:22.218Z,58.61
2019-05-10T10:39:47.683Z,60.05
2019-05-10T10:42:13.842Z,60.12
2019-05-10T10:44:39.742Z,59.92
2019-05-10T10:47:08.065Z,59.06
2019-05-10T10:49:33.932Z,57.54
2019-05-10T10:51:59.835Z,58.55
2019-05-10T10:54:30.228Z,57.70
2019-05-10T10:56:53.674Z,55.93
2019-05-10T10:59:19.716Z,54.97
2019-05-10T11:01:52.039Z,55.42
2019-05-10T11:04:16.306Z,55.73
2019-05-10T11:06:41.984Z,55.86
2019-05-10T11:09:08.092Z,54.19
2019-05-10T11:11:38.746Z,53.14
2019-05-10T11:14:07.360Z,53.50
2019-05-10T11:16:30.244Z,54.66
2019-05-10T11:18:56.387Z,53.90
2019-05-10T11:21:23.305Z,52.59
2019-05-10T11:23:50.293Z,51.80
2019-05-10T11:26:16.437Z,50.82
2019-05-10T11:28:44.112Z,50.94
2019-05-10T11:31:11.404Z,51.27
2019-05-10T11:33:37.661Z,52.71
2019-05-10T11:36:08.368Z,53.38
2019-05-10T11:38:31.991Z,50.54
2019-05-10T11:40:58.013Z,49.55
2019-05-10T11:43:27.043Z,49.01
2019-05-10T11:45:52.119Z,47.50
2019-05-10T11:48:18.232Z,46.98
2019-05-10T11:50:44.328Z,47.08
2019-05-10T11:53:13.574Z,46.15
2019-05-10T11:55:41.174Z,46.59
2019-05-10T11:58:09.004Z,45.92
2019-05-10T12:00:34.593Z,45.98
2019-05-10T12:03:06.982Z,45.90
2019-05-10T12:05:28.667Z,45.45
2019-05-10T12:07:55.059Z,46.30
2019-05-10T12:10:25.754Z,47.51
2019-05-10T12:13:01.709Z,48.54
2019-05-10T12:15:24.752Z,50.08
2019-05-10T12:17:46.904Z,51.76
2019-05-10T12:20:16.996Z,54.32
2019-05-10T12:22:47.100Z,55.78
2019-05-10T12:25:28.282Z,57.05
2019-05-10T12:27:45.112Z,58.19
2019-05-10T12:30:06.320Z,59.10
2019-05-10T12:32:37.044Z,62.06
2019-05-10T12:35:01.479Z,62.82
2019-05-10T12:37:27.655Z,63.49
2019-05-10T12:39:53.721Z,62.74
2019-05-10T12:42:21.845Z,63.34
2019-05-10T12:44:48.259Z,63.84
2019-05-10T12:47:14.574Z,64.09
2019-05-10T12:49:41.045Z,65.18
2019-05-10T12:52:09.086Z,64.99
2019-05-10T12:54:35.338Z,64.71
2019-05-10T12:57:01.346Z,65.25
2019-05-10T12:59:29.565Z,64.98
2019-05-10T13:01:58.134Z,65.56
2019-05-10T13:04:32.272Z,66.46
2019-05-10T13:06:50.963Z,67.00
2019-05-10T13:09:17.071Z,67.82
2019-05-10T13:11:43.074Z,67.55
2019-05-10T13:14:09.674Z,66.80
2019-05-10T13:16:35.910Z,67.02
2019-05-10T13:19:01.924Z,67.47
2019-05-10T13:21:30.366Z,67.34
2019-05-10T13:23:56.491Z,67.91
2019-05-10T13:26:22.598Z,68.28
2019-05-10T13:28:48.710Z,68.92
2019-05-10T13:31:15.326Z,69.84
2019-05-10T13:33:44.148Z,68.89
2019-05-10T13:36:09.579Z,67.11
2019-05-10T13:38:36.897Z,66.98
2019-05-10T13:41:03.598Z,67.10
2019-05-10T13:43:29.611Z,66.69
2019-05-10T13:45:55.613Z,65.20
2019-05-10T13:48:25.791Z,62.73
2019-05-10T13:50:49.763Z,61.66
2019-05-10T13:53:21.090Z,62.60
2019-05-10T13:55:43.779Z,63.25
2019-05-10T13:58:09.886Z,63.05
2019-05-10T14:00:36.263Z,62.39
2019-05-10T14:03:04.916Z,62.13
2019-05-10T14:05:30.356Z,62.61
2019-05-10T14:07:56.487Z,62.36
2019-05-10T14:10:23.475Z,62.54
2019-05-10T14:12:50.485Z,62.30
2019-05-10T14:15:16.588Z,62.21
2019-05-10T14:17:42.696Z,62.51
2019-05-10T14:20:19.593Z,63.53
2019-05-10T14:22:36.934Z,63.07
2019-05-10T14:25:05.337Z,62.56
2019-05-10T14:27:36.059Z,62.28
2019-05-10T14:29:59.245Z,61.87
2019-05-10T14:32:25.352Z,62.15
2019-05-10T14:34:51.483Z,61.57
2019-05-10T14:37:19.800Z,61.90
2019-05-10T14:39:45.347Z,62.20
2019-05-10T14:42:11.354Z,62.84
2019-05-10T14:44:38.545Z,62.87
2019-05-10T14:47:05.260Z,62.98
2019-05-10T14:49:31.239Z,63.42
2019-05-10T14:51:59.316Z,63.87
2019-05-10T14:54:25.182Z,64.09
2019-05-10T14:56:53.897Z,63.58
2019-05-10T14:59:19.151Z,63.62
2019-05-10T15:01:45.666Z,63.39
2019-05-10T15:04:11.752Z,62.89
2019-05-10T15:06:39.036Z,63.03
2019-05-10T15:09:06.650Z,63.05
2019-05-10T15:11:33.287Z,62.35
2019-05-10T15:13:59.396Z,62.53
2019-05-10T15:16:30.441Z,62.68
2019-05-10T15:18:53.236Z,62.08
2019-05-10T15:21:19.273Z,61.93
2019-05-10T15:23:45.383Z,61.99
2019-05-10T15:26:12.368Z,61.45
2019-05-10T15:28:40.524Z,60.88
2019-05-10T15:31:06.702Z,60.73
2019-05-10T15:33:32.709Z,59.10
2019-05-10T15:35:58.647Z,58.00
2019-05-10T15:38:24.759Z,58.50
2019-05-10T15:40:50.790Z,58.61
2019-05-10T15:43:18.894Z,58.52
2019-05-10T15:45:45.894Z,58.94
2019-05-10T15:48:12.774Z,59.87
2019-05-10T15:50:41.022Z,60.25
2019-05-10T15:53:06.509Z,63.01
2019-05-10T15:55:32.531Z,64.72
2019-05-10T15:58:00.235Z,65.99
2019-05-10T16:00:37.369Z,68.11
2019-05-10T16:02:54.481Z,69.77
2019-05-10T16:05:29.342Z,70.19
2019-05-10T16:07:51.579Z,70.83
2019-05-10T16:10:16.409Z,71.09
2019-05-10T16:12:43.198Z,71.60
2019-05-10T16:15:13.630Z,72.46
2019-05-10T16:17:40.251Z,73.21
2019-05-10T16:20:06.459Z,73.31
2019-05-10T16:22:32.799Z,73.51
2019-05-10T16:25:01.225Z,72.95
2019-05-10T16:27:26.791Z,72.57
2019-05-10T16:29:52.907Z,72.55
2019-05-10T16:32:18.908Z,72.45
2019-05-10T16:34:44.926Z,72.37
2019-05-10T16:37:11.390Z,72.38
2019-05-10T16:39:37.494Z,72.61
2019-05-10T16:42:03.595Z,72.62
2019-05-10T16:44:29.693Z,72.73
2019-05-10T16:46:55.591Z,72.70
2019-05-10T16:49:21.625Z,72.55
2019-05-10T16:51:49.833Z,72.93
2019-05-10T16:54:24.353Z,72.77
2019-05-10T16:56:43.561Z,72.71
2019-05-10T16:59:09.789Z,72.69
2019-05-10T17:01:35.819Z,72.79
2019-05-10T17:04:01.958Z,73.14
2019-05-10T17:06:28.055Z,73.11
2019-05-10T17:08:54.088Z,73.40
2019-05-10T17:11:19.993Z,73.70
2019-05-10T17:13:46.037Z,74.34
2019-05-10T17:16:17.144Z,75.03
2019-05-10T17:18:40.383Z,75.22
2019-05-10T17:21:06.641Z,74.97
2019-05-10T17:23:32.746Z,74.57
2019-05-10T17:25:58.742Z,74.36
2019-05-10T17:28:24.784Z,74.58
2019-05-10T17:30:50.897Z,75.12
2019-05-10T17:33:16.824Z,75.50
2019-05-10T17:35:44.183Z,75.57
2019-05-10T17:38:14.100Z,75.86
2019-05-10T17:40:42.204Z,75.86
2019-05-10T17:43:06.206Z,76.22
2019-05-10T17:45:34.993Z,76.46
2019-05-10T17:48:03.485Z,76.53
2019-05-10T17:50:28.400Z,76.42
2019-05-10T17:52:54.443Z,76.33
2019-05-10T17:55:20.584Z,76.27
2019-05-10T17:57:48.484Z,76.19
2019-05-10T18:00:15.402Z,76.76
2019-05-10T18:02:41.508Z,77.10
2019-05-10T18:05:08.359Z,77.20
2019-05-10T18:07:34.620Z,76.91
2019-05-10T18:10:00.760Z,76.85
2019-05-10T18:12:27.358Z,76.99
2019-05-10T18:14:55.915Z,77.20
2019-05-10T18:17:25.999Z,77.09
2019-05-10T18:19:49.421Z,77.04
2019-05-10T18:22:15.532Z,76.85
2019-05-10T18:24:42.448Z,76.69
2019-05-10T18:27:08.745Z,76.67
2019-05-10T18:29:34.850Z,77.16
2019-05-10T18:32:00.875Z,76.95
2019-05-10T18:34:33.045Z,76.72
2019-05-10T18:36:54.937Z,76.49
2019-05-10T18:39:20.938Z,76.27
2019-05-10T18:41:48.107Z,76.29
2019-05-10T18:44:15.885Z,76.39
2019-05-10T18:46:42.153Z,75.78
2019-05-10T18:49:08.276Z,75.32
2019-05-10T18:51:34.749Z,74.92
2019-05-10T18:54:00.895Z,74.87
2019-05-10T18:56:31.240Z,74.78
2019-05-10T18:58:55.005Z,75.44
2019-05-10T19:01:21.913Z,75.29
2019-05-10T19:03:47.956Z,74.95
2019-05-10T19:06:13.982Z,75.21
2019-05-10T19:08:40.009Z,75.36
2019-05-10T19:11:06.904Z,75.62
2019-05-10T19:13:34.579Z,75.43
2019-05-10T19:16:01.344Z,75.76
2019-05-10T19:18:27.474Z,76.15
2019-05-10T19:20:55.176Z,76.59
2019-05-10T19:23:21.619Z,76.75
2019-05-10T19:25:51.541Z,76.82
2019-05-10T19:28:20.842Z,76.12
2019-05-10T19:30:43.698Z,76.02
2019-05-10T19:33:09.733Z,75.88
2019-05-10T19:35:37.866Z,76.20
2019-05-10T19:38:04.022Z,76.64
2019-05-10T19:40:30.065Z,77.83
2019-05-10T19:42:56.063Z,77.95
2019-05-10T19:45:22.098Z,77.57
2019-05-10T19:47:54.962Z,77.37
2019-05-10T19:50:16.448Z,77.36
2019-05-10T19:52:42.485Z,77.45
2019-05-10T19:55:12.967Z,77.66
2019-05-10T19:57:36.730Z,77.37
2019-05-10T20:00:04.727Z,77.47
2019-05-10T20:02:30.636Z,77.48
2019-05-10T20:04:56.635Z,77.60
2019-05-10T20:07:22.692Z,77.45
2019-05-10T20:09:48.743Z,77.41
2019-05-10T20:12:14.752Z,77.17
2019-05-10T20:14:40.763Z,76.93
2019-05-10T20:17:06.767Z,77.32
2019-05-10T20:19:32.770Z,77.82
2019-05-10T20:21:58.774Z,78.27
2019-05-10T20:24:24.878Z,78.60
2019-05-10T20:26:50.789Z,78.73
2019-05-10T20:29:16.790Z,78.93
2019-05-10T20:31:42.819Z,78.93
2019-05-10T20:34:09.166Z,78.91
2019-05-10T20:36:35.309Z,78.69
2019-05-10T20:39:01.325Z,78.32
2019-05-10T20:41:27.219Z,77.28
2019-05-10T20:43:53.121Z,77.57
2019-05-10T20:46:19.255Z,77.97
2019-05-10T20:48:45.356Z,77.89
2019-05-10T20:51:11.249Z,77.63
2019-05-10T20:53:37.285Z,78.05
2019-05-10T20:56:03.292Z,78.20
2019-05-10T20:58:29.372Z,78.22
2019-05-10T21:00:55.234Z,78.12
2019-05-10T21:03:21.342Z,77.90
2019-05-10T21:05:47.355Z,77.91
2019-05-10T21:08:17.032Z,78.04
2019-05-10T21:10:41.379Z,78.06
2019-05-10T21:13:07.392Z,77.84
2019-05-10T21:15:33.420Z,77.78
2019-05-10T21:17:59.998Z,78.20
2019-05-10T21:20:26.006Z,78.58
2019-05-10T21:22:52.009Z,78.82
2019-05-10T21:25:17.951Z,78.89
2019-05-10T21:27:43.950Z,78.99
2019-05-10T21:30:10.270Z,78.78
2019-05-10T21:32:36.272Z,78.36
2019-05-10T21:35:02.408Z,78.67
2019-05-10T21:37:28.411Z,79.18
2019-05-10T21:39:54.544Z,79.87
2019-05-10T21:42:20.479Z,79.41
2019-05-10T21:44:46.525Z,79.34
2019-05-10T21:47:12.625Z,79.74
2019-05-10T21:49:38.737Z,79.87
2019-05-10T21:52:04.776Z,79.85
2019-05-10T21:54:30.979Z,79.96
2019-05-10T21:56:56.981Z,80.04
2019-05-10T21:59:22.989Z,80.07
2019-05-10T22:01:49.219Z,79.97
2019-05-10T22:04:15.427Z,79.96
2019-05-10T22:06:41.373Z,79.75
2019-05-10T22:09:08.552Z,79.88
2019-05-10T22:11:34.638Z,80.00
2019-05-10T22:14:00.744Z,79.82
2019-05-10T22:16:26.657Z,80.16
2019-05-10T22:19:00.170Z,80.46
2019-05-10T22:21:26.311Z,80.22
2019-05-10T22:23:52.284Z,80.17
2019-05-10T22:26:18.311Z,79.94
2019-05-10T22:28:44.415Z,79.68
2019-05-10T22:31:10.549Z,79.79
2019-05-10T22:33:36.449Z,79.92
2019-05-10T22:36:02.569Z,79.75
2019-05-10T22:38:28.567Z,79.86
2019-05-10T22:40:54.687Z,80.05
2019-05-10T22:43:20.717Z,79.93
2019-05-10T22:45:46.715Z,79.81
2019-05-10T22:48:12.828Z,79.74
2019-05-10T22:50:38.943Z,79.74
2019-05-10T22:53:05.085Z,79.65
2019-05-10T22:55:31.208Z,79.74
2019-05-10T22:57:57.351Z,79.97
2019-05-10T23:00:23.553Z,80.50
2019-05-10T23:02:49.622Z,80.37
2019-05-10T23:05:15.659Z,80.26
2019-05-10T23:07:41.668Z,80.41
2019-05-10T23:10:07.968Z,80.43
2019-05-10T23:12:33.976Z,80.34
2019-05-10T23:14:59.983Z,80.16
2019-05-10T23:17:26.082Z,80.03
2019-05-10T23:19:52.100Z,80.03
2019-05-10T23:22:18.103Z,80.07
2019-05-10T23:24:44.103Z,80.24
2019-05-10T23:27:10.211Z,80.40
2019-05-10T23:29:36.143Z,80.40
2019-05-10T23:32:02.361Z,80.27
2019-05-10T23:34:28.594Z,80.27
2019-05-10T23:36:54.493Z,80.35
2019-05-10T23:39:20.579Z,80.27
2019-05-10T23:41:46.576Z,80.13
2019-05-10T23:44:12.479Z,80.08
2019-05-10T23:46:38.543Z,79.96
2019-05-10T23:49:04.550Z,80.19
2019-05-10T23:51:30.471Z,80.34
2019-05-10T23:53:56.574Z,80.28
2019-05-10T23:56:22.587Z,80.27
2019-05-10T23:58:48.712Z,80.21
